Aviation Digital Data Service (ADDS)

Output produced by METARs form (1753 UTC 24 March 2017)
found at http://www.aviationweather.gov/adds/metars/
 
OSDI 241700Z 05006KT CAVOK 13/00 Q1016
TAF OSDI 241000Z 2412/2518 22008KT 9999 FEW030 SCT100 
     TEMPO 2418/2512 VRB03KT CAVOK
       
OSKL 241700Z 27007KT 8000 12/07 Q1014
OSLK 241700Z 11004KT CAVOK 15/10 Q1016
OSLK 241000Z 2412/2512 27010KT 9999 FEW030 
     TEMPO 2420/2506 VRB03KT CAVOK
       
OSLK 241700Z 11004KT CAVOK 15/10 Q1016
OSLK 241000Z 2412/2512 27010KT 9999 FEW030 
     TEMPO 2420/2506 VRB03KT CAVOK
       
OSDI 241700Z 05006KT CAVOK 13/00 Q1016
TAF OSDI 241000Z 2412/2518 22008KT 9999 FEW030 SCT100 
     TEMPO 2418/2512 VRB03KT CAVOK
       
OSKL 241700Z 27007KT 8000 12/07 Q1014